createdAt,value
2022-10-28T00:03:50.903Z,4.81
2022-10-28T00:05:50.964Z,4.80
2022-10-28T00:06:50.911Z,4.66
2022-10-28T00:07:51.235Z,4.17
2022-10-28T00:08:50.902Z,4.60
2022-10-28T00:09:50.942Z,4.20
2022-10-28T00:13:50.908Z,4.97
2022-10-28T00:14:50.925Z,6.78
2022-10-28T00:17:51.181Z,6.59
2022-10-28T00:18:50.938Z,6.38
2022-10-28T00:19:50.920Z,6.22
2022-10-28T00:20:50.962Z,6.73
2022-10-28T00:21:50.945Z,6.91
2022-10-28T00:22:50.916Z,6.47
2022-10-28T00:23:50.978Z,6.69
2022-10-28T00:24:50.943Z,7.02
2022-10-28T00:25:50.968Z,7.56
2022-10-28T00:28:51.002Z,6.50
2022-10-28T00:29:50.954Z,6.18
2022-10-28T00:30:51.029Z,7.17
2022-10-28T00:31:50.980Z,6.54
2022-10-28T00:33:51.008Z,6.63
2022-10-28T00:34:50.997Z,6.45
2022-10-28T00:35:50.963Z,6.40
2022-10-28T00:36:50.982Z,6.99
2022-10-28T00:37:50.985Z,6.62
2022-10-28T00:38:51.007Z,6.21
2022-10-28T00:39:50.986Z,6.28
2022-10-28T00:42:51.345Z,6.43
2022-10-28T00:43:51.026Z,6.00
2022-10-28T00:44:50.980Z,6.02
2022-10-28T00:45:51.027Z,6.02
2022-10-28T00:46:50.994Z,5.26
2022-10-28T00:47:51.417Z,5.56
2022-10-28T00:48:51.033Z,5.21
2022-10-28T00:49:51.001Z,6.20
2022-10-28T00:50:51.055Z,6.07
2022-10-28T00:51:51.020Z,5.46
2022-10-28T00:54:51.046Z,7.33
2022-10-28T00:55:51.044Z,7.06
2022-10-28T00:56:51.044Z,6.68
2022-10-28T00:58:51.092Z,6.44
2022-10-28T01:00:51.062Z,5.86
2022-10-28T01:02:51.078Z,6.99
2022-10-28T01:03:51.112Z,6.35
2022-10-28T01:07:51.367Z,5.84
2022-10-28T01:08:51.097Z,5.66
2022-10-28T01:09:51.063Z,6.99
2022-10-28T01:11:51.064Z,6.29
2022-10-28T01:12:51.355Z,6.06
2022-10-28T01:14:51.099Z,6.65
2022-10-28T01:15:51.083Z,5.87
2022-10-28T01:16:51.133Z,6.20
2022-10-28T01:17:51.093Z,5.77
2022-10-28T01:18:51.118Z,6.26
2022-10-28T01:21:51.126Z,6.00
2022-10-28T01:22:51.419Z,6.20
2022-10-28T01:23:51.136Z,7.05
2022-10-28T01:24:51.109Z,6.29
2022-10-28T01:26:51.141Z,6.96
2022-10-28T01:27:51.125Z,6.59
2022-10-28T01:28:51.149Z,5.79
2022-10-28T01:29:51.099Z,7.62
2022-10-28T01:32:51.393Z,6.54
2022-10-28T01:33:51.119Z,6.96
2022-10-28T01:34:51.134Z,6.70
2022-10-28T01:36:51.192Z,6.52
2022-10-28T01:37:51.503Z,6.91
2022-10-28T01:41:51.150Z,6.80
2022-10-28T01:42:51.135Z,6.94
2022-10-28T01:45:51.163Z,7.06
2022-10-28T01:46:51.170Z,6.46
2022-10-28T01:47:51.406Z,6.70
2022-10-28T01:48:51.174Z,6.25
2022-10-28T01:49:51.200Z,6.51
2022-10-28T01:50:51.183Z,7.08
2022-10-28T01:51:51.176Z,7.01
2022-10-28T01:52:51.585Z,7.20
2022-10-28T01:53:51.178Z,6.36
2022-10-28T01:54:51.213Z,7.62
2022-10-28T01:55:51.159Z,7.24
2022-10-28T01:56:51.163Z,6.99
2022-10-28T01:57:51.199Z,7.98
2022-10-28T02:00:51.305Z,7.56
2022-10-28T02:01:51.296Z,6.12
2022-10-28T02:02:51.410Z,6.13
2022-10-28T02:03:51.219Z,6.14
2022-10-28T02:04:51.237Z,6.58
2022-10-28T02:05:51.173Z,5.84
2022-10-28T02:06:51.214Z,7.26
2022-10-28T02:07:51.236Z,6.35
2022-10-28T02:08:51.190Z,6.36
2022-10-28T02:09:51.249Z,6.83
2022-10-28T02:10:51.233Z,6.81
2022-10-28T02:12:51.683Z,6.41
2022-10-28T02:13:51.223Z,6.18
2022-10-28T02:14:51.303Z,6.38
2022-10-28T02:17:51.665Z,6.20
2022-10-28T02:18:51.248Z,6.03
2022-10-28T02:19:51.247Z,6.20
2022-10-28T02:20:51.264Z,6.47
2022-10-28T02:21:51.222Z,5.90
2022-10-28T02:22:51.263Z,6.83
2022-10-28T02:23:51.265Z,6.91
2022-10-28T02:24:51.248Z,6.77
2022-10-28T02:25:51.286Z,6.43
2022-10-28T02:26:51.236Z,6.52
2022-10-28T02:27:51.425Z,6.63
2022-10-28T02:28:51.265Z,6.60
2022-10-28T02:29:51.238Z,6.64
2022-10-28T02:30:51.290Z,6.62
2022-10-28T02:31:51.269Z,6.64
2022-10-28T02:32:51.650Z,5.98
2022-10-28T02:33:51.316Z,5.47
2022-10-28T02:34:51.288Z,5.94
2022-10-28T02:35:51.251Z,5.88
2022-10-28T02:36:51.255Z,6.20
2022-10-28T02:38:51.324Z,5.76
2022-10-28T02:39:51.296Z,6.78
2022-10-28T02:41:51.327Z,5.99
2022-10-28T02:42:51.718Z,6.26
2022-10-28T02:43:51.324Z,5.86
2022-10-28T02:44:51.277Z,5.84
2022-10-28T02:45:51.311Z,5.68
2022-10-28T02:46:51.354Z,6.43
2022-10-28T02:49:51.314Z,6.04
2022-10-28T02:51:51.365Z,5.55
2022-10-28T02:52:51.596Z,5.98
2022-10-28T02:53:51.299Z,6.53
2022-10-28T02:54:51.313Z,6.42
2022-10-28T02:55:51.314Z,6.19
2022-10-28T02:56:51.359Z,5.74
2022-10-28T02:57:51.652Z,6.56
2022-10-28T02:58:51.325Z,6.21
2022-10-28T02:59:51.357Z,6.45
2022-10-28T03:00:51.362Z,7.13
2022-10-28T03:01:51.512Z,6.19
2022-10-28T03:02:51.357Z,6.73
2022-10-28T03:03:51.331Z,6.52
2022-10-28T03:05:51.356Z,6.52
2022-10-28T03:06:51.367Z,6.89
2022-10-28T03:08:51.370Z,6.80
2022-10-28T03:09:51.391Z,6.39
2022-10-28T03:10:51.380Z,6.92
2022-10-28T03:11:51.396Z,6.48
2022-10-28T03:16:51.390Z,6.81
2022-10-28T03:18:51.384Z,6.57
2022-10-28T03:19:51.417Z,6.80
2022-10-28T03:20:55.341Z,5.86
2022-10-28T03:21:51.382Z,6.17
2022-10-28T03:22:51.900Z,5.99
2022-10-28T03:26:51.409Z,6.00
2022-10-28T03:28:51.405Z,6.65
2022-10-28T03:29:51.431Z,6.06
2022-10-28T03:30:51.402Z,6.99
2022-10-28T03:31:51.417Z,6.85
2022-10-28T03:32:51.806Z,5.49
2022-10-28T03:34:51.442Z,6.94
2022-10-28T03:35:51.428Z,6.51
2022-10-28T03:36:51.459Z,7.42
2022-10-28T03:38:51.438Z,7.02
2022-10-28T03:39:51.478Z,6.86
2022-10-28T03:40:51.419Z,6.92
2022-10-28T03:41:51.430Z,7.28
2022-10-28T03:43:51.439Z,6.79
2022-10-28T03:44:51.460Z,6.77
2022-10-28T03:45:51.434Z,6.09
2022-10-28T03:46:51.589Z,6.08
2022-10-28T03:47:51.891Z,6.06
2022-10-28T03:48:51.446Z,6.16
2022-10-28T03:50:51.441Z,6.05
2022-10-28T03:51:51.448Z,6.72
2022-10-28T03:52:51.506Z,5.99
2022-10-28T03:53:51.457Z,6.34
2022-10-28T03:54:51.472Z,5.97
2022-10-28T03:57:51.848Z,6.96
2022-10-28T03:59:51.518Z,5.80
2022-10-28T04:04:51.478Z,6.81
2022-10-28T04:05:52.101Z,6.82
2022-10-28T04:06:51.505Z,6.37
2022-10-28T04:07:51.558Z,6.79
2022-10-28T04:09:51.558Z,6.85
2022-10-28T04:12:51.945Z,6.84
2022-10-28T04:14:52.862Z,6.99
2022-10-28T04:16:51.536Z,6.95
2022-10-28T04:18:51.506Z,6.79
2022-10-28T04:19:51.570Z,6.14
2022-10-28T04:20:52.577Z,6.66
2022-10-28T04:21:51.552Z,6.32
2022-10-28T04:22:54.606Z,7.13
2022-10-28T04:23:51.596Z,7.24
2022-10-28T04:24:51.547Z,6.87
2022-10-28T04:25:51.540Z,6.38
2022-10-28T04:26:51.559Z,6.99
2022-10-28T04:27:51.939Z,6.60
2022-10-28T04:28:51.536Z,6.66
2022-10-28T04:29:51.569Z,7.08
2022-10-28T04:30:51.594Z,6.78
2022-10-28T04:31:52.378Z,6.74
2022-10-28T04:32:51.619Z,6.29
2022-10-28T04:33:51.582Z,7.13
2022-10-28T04:34:51.567Z,6.23
2022-10-28T04:35:51.612Z,6.84
2022-10-28T04:36:51.576Z,7.17
2022-10-28T04:37:52.106Z,6.94
2022-10-28T04:38:51.565Z,6.99
2022-10-28T04:40:51.618Z,6.91
2022-10-28T04:42:51.957Z,7.15
2022-10-28T04:44:51.606Z,6.11
2022-10-28T04:45:51.637Z,6.94
2022-10-28T04:46:51.583Z,6.98
2022-10-28T04:48:51.716Z,7.23
2022-10-28T04:51:51.597Z,7.10
2022-10-28T04:53:51.623Z,7.19
2022-10-28T04:56:51.637Z,6.57
2022-10-28T04:57:51.650Z,6.70
2022-10-28T04:58:51.656Z,6.24
2022-10-28T04:59:51.613Z,5.63
2022-10-28T05:00:51.670Z,5.89
2022-10-28T05:01:51.726Z,6.63
2022-10-28T05:02:51.653Z,6.80
2022-10-28T05:03:51.669Z,5.79
2022-10-28T05:04:51.634Z,5.85
2022-10-28T05:05:51.684Z,6.25
2022-10-28T05:06:51.666Z,6.07
2022-10-28T05:10:51.677Z,5.19
2022-10-28T05:17:51.891Z,5.44
2022-10-28T05:22:52.123Z,5.21
2022-10-28T05:23:51.710Z,6.04
2022-10-28T05:24:51.710Z,5.66
2022-10-28T05:25:51.684Z,6.11
2022-10-28T05:26:51.721Z,5.99
2022-10-28T05:27:51.698Z,5.53
2022-10-28T05:28:51.719Z,6.26
2022-10-28T05:29:51.745Z,6.08
2022-10-28T05:30:51.710Z,6.17
2022-10-28T05:32:54.458Z,6.41
2022-10-28T05:33:51.733Z,6.24
2022-10-28T05:34:51.756Z,6.17
2022-10-28T05:35:51.729Z,6.68
2022-10-28T05:36:51.780Z,6.51
2022-10-28T05:37:51.729Z,6.37
2022-10-28T05:38:51.727Z,6.70
2022-10-28T05:39:51.760Z,6.49
2022-10-28T05:40:51.723Z,6.66
2022-10-28T05:41:51.783Z,6.21
2022-10-28T05:42:52.177Z,6.16
2022-10-28T05:43:51.760Z,6.37
2022-10-28T05:44:51.777Z,6.52
2022-10-28T05:46:51.784Z,7.22
2022-10-28T05:47:51.872Z,7.25
2022-10-28T05:48:51.755Z,7.06
2022-10-28T05:50:51.783Z,6.84
2022-10-28T05:51:51.784Z,7.08
2022-10-28T05:52:51.757Z,6.87
2022-10-28T05:53:51.779Z,7.43
2022-10-28T05:54:51.810Z,7.57
2022-10-28T05:55:51.785Z,8.50
2022-10-28T06:00:51.786Z,6.52
2022-10-28T06:01:51.849Z,6.44
2022-10-28T06:02:52.075Z,6.19
2022-10-28T06:03:51.843Z,6.79
2022-10-28T06:04:51.859Z,6.34
2022-10-28T06:05:51.827Z,6.14
2022-10-28T06:06:51.793Z,6.67
2022-10-28T06:07:51.837Z,6.54
2022-10-28T06:08:51.813Z,5.90
2022-10-28T06:09:51.857Z,6.40
2022-10-28T06:10:50.313Z,6.73
2022-10-28T06:11:50.260Z,6.37
2022-10-28T06:12:50.791Z,6.09
2022-10-28T06:13:50.282Z,6.33
2022-10-28T06:14:50.318Z,6.43
2022-10-28T06:15:50.306Z,5.95
2022-10-28T06:16:50.300Z,5.62
2022-10-28T06:17:50.365Z,6.25
2022-10-28T06:18:50.324Z,6.18
2022-10-28T06:19:50.360Z,5.85
2022-10-28T06:21:50.336Z,6.09
2022-10-28T06:22:50.692Z,6.11
2022-10-28T06:23:50.323Z,6.21
2022-10-28T06:24:50.315Z,6.26
2022-10-28T06:26:50.345Z,6.50
2022-10-28T06:27:50.696Z,6.52
2022-10-28T06:28:50.321Z,5.66
2022-10-28T06:31:50.343Z,5.92
2022-10-28T06:32:50.380Z,7.26
2022-10-28T06:34:50.367Z,7.03
2022-10-28T06:35:50.380Z,5.97
2022-10-28T06:37:50.695Z,7.16
2022-10-28T06:38:50.354Z,7.01
2022-10-28T06:39:50.384Z,6.25
2022-10-28T06:40:52.462Z,6.35
2022-10-28T06:42:50.814Z,7.14
2022-10-28T06:43:50.413Z,6.85
2022-10-28T06:44:50.414Z,6.39
2022-10-28T06:45:50.434Z,6.28
2022-10-28T06:46:51.990Z,6.45
2022-10-28T06:47:51.969Z,6.97
2022-10-28T06:48:51.928Z,6.55
2022-10-28T06:49:51.936Z,6.04
2022-10-28T06:50:51.960Z,6.88
2022-10-28T06:51:51.940Z,6.21
2022-10-28T06:52:51.968Z,6.22
2022-10-28T06:53:51.934Z,6.31
2022-10-28T06:54:51.962Z,6.76
2022-10-28T06:55:51.979Z,6.62
2022-10-28T06:56:51.964Z,6.88
2022-10-28T06:57:52.369Z,6.59
2022-10-28T06:58:52.009Z,6.64
2022-10-28T06:59:51.978Z,6.41
2022-10-28T07:00:51.984Z,6.46
2022-10-28T07:01:52.162Z,6.27
2022-10-28T07:03:51.996Z,6.28
2022-10-28T07:04:52.028Z,6.51
2022-10-28T07:05:52.035Z,6.13
2022-10-28T07:06:52.175Z,6.45
2022-10-28T07:07:52.350Z,6.91
2022-10-28T07:08:52.032Z,6.84
2022-10-28T07:09:52.013Z,6.53
2022-10-28T07:10:52.045Z,6.37
2022-10-28T07:11:55.025Z,6.73
2022-10-28T07:12:52.415Z,5.62
2022-10-28T07:13:52.059Z,6.92
2022-10-28T07:14:52.007Z,7.09
2022-10-28T07:15:52.008Z,6.37
2022-10-28T07:16:52.059Z,6.58
2022-10-28T07:17:52.015Z,6.26
2022-10-28T07:18:52.040Z,6.64
2022-10-28T07:19:52.025Z,6.16
2022-10-28T07:20:52.024Z,6.05
2022-10-28T07:22:52.298Z,7.38
2022-10-28T07:23:52.121Z,6.11
2022-10-28T07:24:52.036Z,6.92
2022-10-28T07:26:54.294Z,6.11
2022-10-28T07:27:52.457Z,5.86
2022-10-28T07:28:52.085Z,6.95
2022-10-28T07:29:52.069Z,8.06
2022-10-28T07:30:52.082Z,7.07
2022-10-28T07:31:52.094Z,6.68
2022-10-28T07:32:52.332Z,7.59
2022-10-28T07:33:52.090Z,7.39
2022-10-28T07:34:52.070Z,6.54
2022-10-28T07:35:52.076Z,7.02
2022-10-28T07:36:52.117Z,7.37
2022-10-28T07:37:52.072Z,7.03
2022-10-28T07:38:52.056Z,7.44
2022-10-28T07:39:52.120Z,6.62
2022-10-28T07:40:52.097Z,6.58
2022-10-28T07:41:52.133Z,6.83
2022-10-28T07:42:52.398Z,6.55
2022-10-28T07:43:52.113Z,6.83
2022-10-28T07:44:52.163Z,6.64
2022-10-28T07:45:52.132Z,7.25
2022-10-28T07:46:55.622Z,6.07
2022-10-28T07:47:52.105Z,7.69
2022-10-28T07:48:52.142Z,6.90
2022-10-28T07:49:52.135Z,6.37
2022-10-28T07:50:52.100Z,6.63
2022-10-28T07:51:52.167Z,7.14
2022-10-28T07:52:52.537Z,7.20
2022-10-28T07:53:52.134Z,7.06
2022-10-28T07:54:52.176Z,7.69
2022-10-28T07:55:52.132Z,7.48
2022-10-28T07:56:52.154Z,7.22
2022-10-28T07:59:52.170Z,6.72
2022-10-28T08:00:52.180Z,7.35
2022-10-28T08:01:52.150Z,6.97
2022-10-28T08:02:52.154Z,7.31
2022-10-28T08:04:52.172Z,7.08
2022-10-28T08:05:55.245Z,7.61
2022-10-28T08:06:52.120Z,7.52
2022-10-28T08:07:52.544Z,7.08
2022-10-28T08:08:52.122Z,6.99
2022-10-28T08:09:52.169Z,7.24
2022-10-28T08:10:52.170Z,7.54
2022-10-28T08:11:52.142Z,7.90
2022-10-28T08:12:52.162Z,7.78
2022-10-28T08:13:52.143Z,7.92
2022-10-28T08:14:52.147Z,8.26
2022-10-28T08:15:52.173Z,7.18
2022-10-28T08:16:52.141Z,8.00
2022-10-28T08:17:52.452Z,8.04
2022-10-28T08:18:52.174Z,7.75
2022-10-28T08:19:52.160Z,7.42
2022-10-28T08:20:52.215Z,7.90
2022-10-28T08:21:52.160Z,7.92
2022-10-28T08:22:52.516Z,7.44
2022-10-28T08:23:52.170Z,7.97
2022-10-28T08:24:52.147Z,8.00
2022-10-28T08:25:52.158Z,7.90
2022-10-28T08:26:52.153Z,8.30
2022-10-28T08:27:52.211Z,8.11
2022-10-28T08:28:52.149Z,8.47
2022-10-28T08:29:52.170Z,9.05
2022-10-28T08:31:04.301Z,7.41
2022-10-28T08:31:52.185Z,7.93
2022-10-28T08:32:52.693Z,7.89
2022-10-28T08:33:52.195Z,8.23
2022-10-28T08:34:52.184Z,7.89
2022-10-28T08:35:52.191Z,7.63
2022-10-28T08:36:52.224Z,8.06
2022-10-28T08:37:52.678Z,6.96
2022-10-28T08:38:52.192Z,9.11
2022-10-28T08:39:52.214Z,8.43
2022-10-28T08:40:52.231Z,8.45
2022-10-28T08:41:52.186Z,8.48
2022-10-28T08:42:52.667Z,8.15
2022-10-28T08:43:57.121Z,8.70
2022-10-28T08:44:52.208Z,8.04
2022-10-28T08:45:52.251Z,9.01
2022-10-28T08:46:52.206Z,8.83
2022-10-28T08:47:52.611Z,7.82
2022-10-28T08:49:52.204Z,9.25
2022-10-28T08:50:52.247Z,8.30
2022-10-28T08:51:52.236Z,8.93
2022-10-28T08:52:52.454Z,8.79
2022-10-28T08:53:52.275Z,8.70
2022-10-28T08:54:52.218Z,9.16
2022-10-28T08:55:52.273Z,9.13
2022-10-28T08:56:52.250Z,9.79
2022-10-28T08:57:52.248Z,8.30
2022-10-28T08:58:52.290Z,9.12
2022-10-28T08:59:52.261Z,8.62
2022-10-28T09:00:52.439Z,8.49
2022-10-28T09:01:52.447Z,9.80
2022-10-28T09:02:52.600Z,8.94
2022-10-28T09:03:52.289Z,9.22
2022-10-28T09:04:52.279Z,9.58
2022-10-28T09:05:52.310Z,8.41
2022-10-28T09:06:52.271Z,9.05
2022-10-28T09:07:52.272Z,8.99
2022-10-28T09:08:52.406Z,8.73
2022-10-28T09:09:52.258Z,10.18
2022-10-28T09:10:52.299Z,9.58
2022-10-28T09:11:52.271Z,10.13
2022-10-28T09:12:52.593Z,9.14
2022-10-28T09:13:52.308Z,10.04
2022-10-28T09:14:52.282Z,8.98
2022-10-28T09:15:52.305Z,8.73
2022-10-28T09:16:52.274Z,9.33
2022-10-28T09:17:52.658Z,8.96
2022-10-28T09:18:52.327Z,9.12
2022-10-28T09:19:52.307Z,9.02
2022-10-28T09:20:52.320Z,8.54
2022-10-28T09:21:52.293Z,8.94
2022-10-28T09:22:52.578Z,9.25
2022-10-28T09:23:52.373Z,9.68
2022-10-28T09:24:52.314Z,9.20
2022-10-28T09:25:52.344Z,8.80
2022-10-28T09:26:52.319Z,10.15
2022-10-28T09:27:52.674Z,10.25
2022-10-28T09:28:52.351Z,9.12
2022-10-28T09:29:52.312Z,8.71
2022-10-28T09:30:52.385Z,9.63
2022-10-28T09:31:52.320Z,8.77
2022-10-28T09:32:52.697Z,9.36
2022-10-28T09:33:52.354Z,9.01
2022-10-28T09:34:52.346Z,7.89
2022-10-28T09:35:52.351Z,9.22
2022-10-28T09:36:52.345Z,9.36
2022-10-28T09:37:52.330Z,8.54
2022-10-28T09:38:52.363Z,8.03
2022-10-28T09:39:52.347Z,8.44
2022-10-28T09:40:52.391Z,8.92
2022-10-28T09:41:52.334Z,8.98
2022-10-28T09:42:52.341Z,9.57
2022-10-28T09:43:52.385Z,9.16
2022-10-28T09:44:52.363Z,8.15
2022-10-28T09:46:52.380Z,8.30
2022-10-28T09:47:52.574Z,9.81
2022-10-28T09:48:52.398Z,8.96
2022-10-28T09:49:52.378Z,8.66
2022-10-28T09:50:52.429Z,8.26
2022-10-28T09:51:52.397Z,8.15
2022-10-28T09:52:52.389Z,8.51
2022-10-28T09:53:52.398Z,9.38
2022-10-28T09:54:52.406Z,8.45
2022-10-28T09:55:52.536Z,8.09
2022-10-28T09:56:52.392Z,8.52
2022-10-28T09:57:52.639Z,9.02
2022-10-28T09:58:52.442Z,8.47
2022-10-28T09:59:52.414Z,8.64
2022-10-28T10:00:52.442Z,9.39
2022-10-28T10:01:52.490Z,8.87
2022-10-28T10:02:52.451Z,9.04
2022-10-28T10:03:52.451Z,8.20
2022-10-28T10:04:52.400Z,8.58
2022-10-28T10:05:52.436Z,9.31
2022-10-28T10:06:52.434Z,8.81
2022-10-28T10:07:52.799Z,8.34
2022-10-28T10:08:52.482Z,9.02
2022-10-28T10:09:52.529Z,8.81
2022-10-28T10:10:52.448Z,8.45
2022-10-28T10:11:52.460Z,9.22
2022-10-28T10:12:52.658Z,9.01
2022-10-28T10:13:52.484Z,9.84
2022-10-28T10:14:52.456Z,9.02
2022-10-28T10:15:52.473Z,9.41
2022-10-28T10:16:52.458Z,9.25
2022-10-28T10:17:52.430Z,8.78
2022-10-28T10:18:52.474Z,9.16
2022-10-28T10:20:52.469Z,8.22
2022-10-28T10:21:52.473Z,8.04
2022-10-28T10:22:52.811Z,8.01
2022-10-28T10:24:52.461Z,8.16
2022-10-28T10:25:52.507Z,7.08
2022-10-28T10:26:52.477Z,7.72
2022-10-28T10:27:52.690Z,8.27
2022-10-28T10:28:52.518Z,7.46
2022-10-28T10:30:52.507Z,7.36
2022-10-28T10:31:52.473Z,7.02
2022-10-28T10:32:52.483Z,7.15
2022-10-28T10:33:52.510Z,7.01
2022-10-28T10:34:52.478Z,7.31
2022-10-28T10:35:54.606Z,7.61
2022-10-28T10:37:52.776Z,7.91
2022-10-28T10:38:52.572Z,7.56
2022-10-28T10:39:52.507Z,7.90
2022-10-28T10:40:52.531Z,7.72
2022-10-28T10:41:52.523Z,7.71
2022-10-28T10:43:52.552Z,7.57
2022-10-28T10:44:52.527Z,6.86
2022-10-28T10:45:52.552Z,7.60
2022-10-28T10:46:52.570Z,7.85
2022-10-28T10:49:52.568Z,8.11
2022-10-28T10:50:52.567Z,9.02
2022-10-28T10:52:52.952Z,9.23
2022-10-28T10:54:52.546Z,8.80
2022-10-28T10:55:52.585Z,9.07
2022-10-28T10:58:52.604Z,9.87
2022-10-28T10:59:52.562Z,8.79
2022-10-28T11:00:52.599Z,8.57
2022-10-28T11:01:52.799Z,9.18
2022-10-28T11:02:55.972Z,8.44
2022-10-28T11:03:52.723Z,8.81
2022-10-28T11:04:52.595Z,9.55
2022-10-28T11:06:05.462Z,8.45
2022-10-28T11:06:52.581Z,9.20
2022-10-28T11:07:52.912Z,8.01
2022-10-28T11:08:52.609Z,8.66
2022-10-28T11:09:52.568Z,8.32
2022-10-28T11:10:52.649Z,7.96
2022-10-28T11:11:52.596Z,8.53
2022-10-28T11:12:52.993Z,8.30
2022-10-28T11:13:52.625Z,8.27
2022-10-28T11:14:52.595Z,9.08
2022-10-28T11:15:52.640Z,8.41
2022-10-28T11:16:52.605Z,9.21
2022-10-28T11:17:52.863Z,8.88
2022-10-28T11:18:52.642Z,7.87
2022-10-28T11:19:52.611Z,8.62
2022-10-28T11:21:52.621Z,8.37
2022-10-28T11:22:52.984Z,8.21
2022-10-28T11:24:52.636Z,8.99
2022-10-28T11:25:52.654Z,9.11
2022-10-28T11:26:52.610Z,8.14
2022-10-28T11:28:52.699Z,8.38
2022-10-28T11:30:52.672Z,8.05
2022-10-28T11:31:52.636Z,8.35
2022-10-28T11:33:01.751Z,7.75
2022-10-28T11:33:52.717Z,8.41
2022-10-28T11:34:52.650Z,8.64
2022-10-28T11:35:52.642Z,8.18
2022-10-28T11:36:52.711Z,6.95
2022-10-28T11:37:52.641Z,8.64
2022-10-28T11:38:52.694Z,8.42
2022-10-28T11:40:52.675Z,7.51
2022-10-28T11:41:52.738Z,7.35
2022-10-28T11:42:53.088Z,8.32
2022-10-28T11:44:52.662Z,8.28
2022-10-28T11:45:52.667Z,8.50
2022-10-28T11:47:53.164Z,8.57
2022-10-28T11:48:52.698Z,8.62
2022-10-28T11:49:52.711Z,8.93
2022-10-28T11:50:52.700Z,8.54
2022-10-28T11:51:52.721Z,8.52
2022-10-28T11:52:52.706Z,9.18
2022-10-28T11:54:52.783Z,9.08
2022-10-28T11:55:52.695Z,8.64
2022-10-28T11:56:52.737Z,7.99
2022-10-28T11:57:53.074Z,8.27
2022-10-28T11:58:52.748Z,8.59
2022-10-28T11:59:52.725Z,8.49
2022-10-28T12:00:52.712Z,7.91
2022-10-28T12:01:52.876Z,8.35
2022-10-28T12:02:53.555Z,7.92
2022-10-28T12:03:52.752Z,7.59
2022-10-28T12:04:52.761Z,8.61
2022-10-28T12:05:52.708Z,6.78
2022-10-28T12:09:52.769Z,6.78
2022-10-28T12:11:52.769Z,5.46
2022-10-28T12:15:52.776Z,5.43
2022-10-28T12:17:53.176Z,6.21
2022-10-28T12:20:52.784Z,5.45
2022-10-28T12:21:52.811Z,5.36
2022-10-28T12:23:52.812Z,5.26
2022-10-28T12:24:52.900Z,5.26
2022-10-28T12:25:52.779Z,5.72
2022-10-28T12:26:52.805Z,5.45
2022-10-28T12:28:52.797Z,5.61
2022-10-28T12:31:52.797Z,5.91
2022-10-28T12:32:53.143Z,6.16
2022-10-28T12:33:52.809Z,6.23
2022-10-28T12:34:52.794Z,5.03
2022-10-28T12:36:52.815Z,7.35
2022-10-28T12:37:52.938Z,6.65
2022-10-28T12:38:52.809Z,6.21
2022-10-28T12:39:52.817Z,5.89
2022-10-28T12:41:52.833Z,5.34
2022-10-28T12:43:52.821Z,5.84
2022-10-28T12:44:53.773Z,5.11
2022-10-28T12:45:52.879Z,5.45
2022-10-28T12:48:52.817Z,5.10
2022-10-28T12:50:52.886Z,5.17
2022-10-28T12:51:52.881Z,5.28
2022-10-28T12:54:53.810Z,5.42
2022-10-28T12:55:52.985Z,5.95
2022-10-28T12:56:52.851Z,5.55
2022-10-28T12:57:53.195Z,5.30
2022-10-28T12:58:52.872Z,5.40
2022-10-28T12:59:52.858Z,6.23
2022-10-28T13:00:52.931Z,6.25
2022-10-28T13:01:53.023Z,6.00
2022-10-28T13:04:52.905Z,5.14
2022-10-28T13:05:52.897Z,5.31
2022-10-28T13:06:52.877Z,6.24
2022-10-28T13:07:54.821Z,5.74
2022-10-28T13:08:52.916Z,5.17
2022-10-28T13:09:53.015Z,4.92
2022-10-28T13:10:52.921Z,4.67
2022-10-28T13:12:53.181Z,4.32
2022-10-28T13:14:52.905Z,4.85
2022-10-28T13:16:52.956Z,5.78
2022-10-28T13:18:52.929Z,4.51
2022-10-28T13:20:52.969Z,4.42
2022-10-28T13:21:52.954Z,4.98
2022-10-28T13:22:53.225Z,4.31
2022-10-28T13:24:52.942Z,4.26
2022-10-28T13:26:52.998Z,5.55
2022-10-28T13:27:53.325Z,5.40
2022-10-28T13:28:52.966Z,5.65
2022-10-28T13:29:52.960Z,5.53
2022-10-28T13:31:52.933Z,5.68
2022-10-28T13:32:53.008Z,5.61
2022-10-28T13:33:52.961Z,5.31
2022-10-28T13:34:53.016Z,5.07
2022-10-28T13:36:54.761Z,5.52
2022-10-28T13:37:53.203Z,5.48
2022-10-28T13:39:52.983Z,5.18
2022-10-28T13:40:53.109Z,5.85
2022-10-28T13:41:52.977Z,5.08
2022-10-28T13:42:53.290Z,4.76
2022-10-28T13:43:52.970Z,5.08
2022-10-28T13:44:53.009Z,5.73
2022-10-28T13:45:53.015Z,4.77
2022-10-28T13:46:53.004Z,4.71
2022-10-28T13:47:52.982Z,4.51
2022-10-28T13:48:53.015Z,4.24
2022-10-28T13:49:52.983Z,5.23
2022-10-28T13:51:52.995Z,5.19
2022-10-28T13:52:53.522Z,5.96
2022-10-28T13:53:53.045Z,5.75
2022-10-28T13:54:53.020Z,5.34
2022-10-28T13:55:52.997Z,6.17
2022-10-28T13:56:53.104Z,5.44
2022-10-28T13:57:53.283Z,4.69
2022-10-28T13:58:53.088Z,4.00
2022-10-28T13:59:53.012Z,4.12
2022-10-28T14:00:53.756Z,4.54
2022-10-28T14:02:53.467Z,6.20
2022-10-28T14:04:53.065Z,6.21
2022-10-28T14:07:53.480Z,6.61
2022-10-28T14:08:53.058Z,6.00
2022-10-28T14:09:53.123Z,6.04
2022-10-28T14:10:53.069Z,5.95
2022-10-28T14:11:53.077Z,5.83
2022-10-28T14:12:53.501Z,6.43
2022-10-28T14:13:53.036Z,6.50
2022-10-28T14:14:53.072Z,6.75
2022-10-28T14:15:53.138Z,6.14
2022-10-28T14:16:53.080Z,6.43
2022-10-28T14:17:53.298Z,6.20
2022-10-28T14:19:53.099Z,6.53
2022-10-28T14:20:53.056Z,5.74
2022-10-28T14:21:57.642Z,6.60
2022-10-28T14:22:53.075Z,6.84
2022-10-28T14:23:53.077Z,6.65
2022-10-28T14:24:53.109Z,5.76
2022-10-28T14:25:53.074Z,6.32
2022-10-28T14:26:53.117Z,5.87
2022-10-28T14:27:53.540Z,5.83
2022-10-28T14:28:53.087Z,6.30
2022-10-28T14:29:53.123Z,6.30
2022-10-28T14:31:53.099Z,5.80
2022-10-28T14:32:53.559Z,6.20
2022-10-28T14:33:53.097Z,5.95
2022-10-28T14:34:53.136Z,5.92
2022-10-28T14:36:53.123Z,5.33
2022-10-28T14:37:53.132Z,6.22
2022-10-28T14:38:53.142Z,4.93
2022-10-28T14:41:53.172Z,5.21
2022-10-28T14:42:53.152Z,5.01
2022-10-28T14:43:53.128Z,5.30
2022-10-28T14:45:53.313Z,5.30
2022-10-28T14:46:53.139Z,4.78
2022-10-28T14:47:53.677Z,5.42
2022-10-28T14:49:53.176Z,5.00
2022-10-28T14:50:53.146Z,6.12
2022-10-28T14:51:53.184Z,5.26
2022-10-28T14:53:53.163Z,4.93
2022-10-28T14:58:53.197Z,4.89
2022-10-28T14:59:53.210Z,5.24
2022-10-28T15:00:53.219Z,5.49
2022-10-28T15:01:53.280Z,5.93
2022-10-28T15:02:53.197Z,5.24
2022-10-28T15:04:53.292Z,6.15
2022-10-28T15:05:53.192Z,5.35
2022-10-28T15:07:53.689Z,5.72
2022-10-28T15:08:53.198Z,5.98
2022-10-28T15:10:53.208Z,5.22
2022-10-28T15:11:53.202Z,5.90
2022-10-28T15:12:53.559Z,5.99
2022-10-28T15:13:53.200Z,6.45
2022-10-28T15:14:53.247Z,6.47
2022-10-28T15:15:53.215Z,5.95
2022-10-28T15:16:53.242Z,5.58
2022-10-28T15:17:53.249Z,6.05
2022-10-28T15:18:53.239Z,5.37
2022-10-28T15:19:53.214Z,6.01
2022-10-28T15:20:53.229Z,5.28
2022-10-28T15:21:58.284Z,5.32
2022-10-28T15:22:53.684Z,5.70
2022-10-28T15:23:53.228Z,6.31
2022-10-28T15:24:53.313Z,6.54
2022-10-28T15:25:53.249Z,7.34
2022-10-28T15:26:53.254Z,6.64
2022-10-28T15:27:53.679Z,6.77
2022-10-28T15:28:53.248Z,6.95
2022-10-28T15:29:53.277Z,7.60
2022-10-28T15:30:53.249Z,6.79
2022-10-28T15:31:53.243Z,7.36
2022-10-28T15:32:53.269Z,6.08
2022-10-28T15:33:53.258Z,6.14
2022-10-28T15:34:53.271Z,5.60
2022-10-28T15:35:53.275Z,6.06
2022-10-28T15:36:53.423Z,6.12
2022-10-28T15:37:53.577Z,5.44
2022-10-28T15:38:53.268Z,6.41
2022-10-28T15:41:53.277Z,6.08
2022-10-28T15:42:53.370Z,5.74
2022-10-28T15:43:53.297Z,5.76
2022-10-28T15:44:53.307Z,6.02
2022-10-28T15:45:53.304Z,5.70
2022-10-28T15:46:53.301Z,5.85
2022-10-28T15:47:53.651Z,5.68
2022-10-28T15:48:53.301Z,5.64
2022-10-28T15:49:53.315Z,5.73
2022-10-28T15:50:53.331Z,6.31
2022-10-28T15:51:53.286Z,5.79
2022-10-28T15:52:53.689Z,5.88
2022-10-28T15:53:53.376Z,5.63
2022-10-28T15:54:53.288Z,5.68
2022-10-28T15:56:07.958Z,5.81
2022-10-28T15:56:53.435Z,5.21
2022-10-28T15:57:53.300Z,4.07
2022-10-28T15:58:53.367Z,5.14
2022-10-28T15:59:54.804Z,4.27
2022-10-28T16:00:53.590Z,5.06
2022-10-28T16:01:53.541Z,4.15
2022-10-28T16:02:53.901Z,4.70
2022-10-28T16:03:53.356Z,4.31
2022-10-28T16:04:53.316Z,4.60
2022-10-28T16:05:53.375Z,5.10
2022-10-28T16:07:53.672Z,4.77
2022-10-28T16:08:53.387Z,5.19
2022-10-28T16:09:53.331Z,5.30
2022-10-28T16:10:53.385Z,5.19
2022-10-28T16:11:53.371Z,5.19
2022-10-28T16:12:53.352Z,4.96
2022-10-28T16:13:53.959Z,5.04
2022-10-28T16:14:53.374Z,5.42
2022-10-28T16:15:53.404Z,5.53
2022-10-28T16:16:53.462Z,5.53
2022-10-28T16:17:53.568Z,5.39
2022-10-28T16:18:53.396Z,4.98
2022-10-28T16:19:53.365Z,4.46
2022-10-28T16:20:53.494Z,5.26
2022-10-28T16:21:53.348Z,5.57
2022-10-28T16:22:53.377Z,5.21
2022-10-28T16:23:53.411Z,4.45
2022-10-28T16:24:53.380Z,4.82
2022-10-28T16:25:53.419Z,5.10
2022-10-28T16:26:53.367Z,5.10
2022-10-28T16:27:53.554Z,4.64
2022-10-28T16:29:53.400Z,4.93
2022-10-28T16:30:53.445Z,4.57
2022-10-28T16:31:53.394Z,4.89
2022-10-28T16:32:53.689Z,4.77